createdAt,value
2018-04-15T00:00:35.959Z,100904.07
2018-04-15T00:03:03.490Z,100906.67
2018-04-15T00:05:32.118Z,100903.05
2018-04-15T00:08:01.175Z,100903.89
2018-04-15T00:10:28.709Z,100899.80
2018-04-15T00:12:56.817Z,100896.96
2018-04-15T00:15:25.128Z,100891.30
2018-04-15T00:17:52.659Z,100893.61
2018-04-15T00:20:20.195Z,100897.25
2018-04-15T00:22:47.804Z,100897.86
2018-04-15T00:25:16.133Z,100900.14
2018-04-15T00:27:43.664Z,100893.14
2018-04-15T00:30:11.191Z,100895.02
2018-04-15T00:32:38.968Z,100886.80
2018-04-15T00:35:06.498Z,100877.27
2018-04-15T00:37:34.669Z,100879.41
2018-04-15T00:40:02.201Z,100875.82
2018-04-15T00:42:29.889Z,100881.63
2018-04-15T00:44:58.560Z,100879.97
2018-04-15T00:47:26.114Z,100881.72
2018-04-15T00:49:54.177Z,100885.02
2018-04-15T00:52:21.747Z,100877.25
2018-04-15T00:54:49.295Z,100878.67
2018-04-15T00:57:16.859Z,100883.59
2018-04-15T00:59:45.258Z,100877.84
2018-04-15T01:02:12.794Z,100877.61
2018-04-15T01:04:40.362Z,100885.88
2018-04-15T01:07:09.670Z,100883.98
2018-04-15T01:09:38.059Z,100873.39
2018-04-15T01:12:06.334Z,100877.55
2018-04-15T01:14:34.471Z,100877.04
2018-04-15T01:17:01.990Z,100884.78
2018-04-15T01:19:29.554Z,100876.59
2018-04-15T01:21:58.102Z,100884.09
2018-04-15T01:24:25.639Z,100881.94
2018-04-15T01:26:53.162Z,100883.36
2018-04-15T01:29:20.735Z,100890.72
2018-04-15T01:31:48.266Z,100884.98
2018-04-15T01:34:16.635Z,100882.14
2018-04-15T01:36:44.201Z,100885.55
2018-04-15T01:39:12.229Z,100877.87
2018-04-15T01:41:39.792Z,100874.63
2018-04-15T01:44:08.424Z,100873.95
2018-04-15T01:46:35.953Z,100869.15
2018-04-15T01:49:04.566Z,100864.61
2018-04-15T01:51:32.126Z,100860.25
2018-04-15T01:53:59.654Z,100866.86
2018-04-15T01:56:27.846Z,100857.98
2018-04-15T01:58:55.408Z,100855.32
2018-04-15T02:01:23.390Z,100851.38
2018-04-15T02:03:50.936Z,100854.42
2018-04-15T02:06:19.287Z,100854.86
2018-04-15T02:08:47.470Z,100852.25
2018-04-15T02:11:15.726Z,100853.82
2018-04-15T02:13:43.938Z,100850.17
2018-04-15T02:16:11.518Z,100848.00
2018-04-15T02:18:39.274Z,100848.56
2018-04-15T02:21:07.333Z,100855.80
2018-04-15T02:23:34.904Z,100845.91
2018-04-15T02:26:02.436Z,100846.44
2018-04-15T02:28:30.017Z,100849.77
2018-04-15T02:30:57.573Z,100851.33
2018-04-15T02:33:25.210Z,100852.77
2018-04-15T02:35:52.806Z,100856.94
2018-04-15T02:38:21.322Z,100856.50
2018-04-15T02:40:48.866Z,100851.25
2018-04-15T02:43:16.402Z,100850.69
2018-04-15T02:45:44.473Z,100842.02
2018-04-15T02:48:12.819Z,100843.21
2018-04-15T02:50:40.369Z,100838.47
2018-04-15T02:53:07.984Z,100843.72
2018-04-15T02:55:35.581Z,100842.53
2018-04-15T02:58:03.142Z,100841.70
2018-04-15T03:00:31.473Z,100844.78
2018-04-15T03:02:59.018Z,100839.20
2018-04-15T03:05:27.117Z,100833.77
2018-04-15T03:07:54.660Z,100831.75
2018-04-15T03:10:22.219Z,100821.77
2018-04-15T03:12:50.478Z,100816.69
2018-04-15T03:15:18.482Z,100819.78
2018-04-15T03:17:46.818Z,100816.55
2018-04-15T03:20:14.353Z,100806.32
2018-04-15T03:22:42.650Z,100812.08
2018-04-15T03:25:10.186Z,100805.48
2018-04-15T03:27:37.930Z,100808.25
2018-04-15T03:30:05.503Z,100805.91
2018-04-15T03:32:33.032Z,100803.83
2018-04-15T03:35:00.555Z,100801.88
2018-04-15T03:37:29.185Z,100798.08
2018-04-15T03:39:56.746Z,100793.53
2018-04-15T03:42:25.059Z,100786.59
2018-04-15T03:44:53.371Z,100785.58
2018-04-15T03:47:20.929Z,100783.77
2018-04-15T03:49:49.291Z,100783.53
2018-04-15T03:52:16.831Z,100782.56
2018-04-15T03:54:44.381Z,100775.27
2018-04-15T03:57:11.950Z,100768.41
2018-04-15T03:59:39.863Z,100773.69
2018-04-15T04:02:07.897Z,100782.70
2018-04-15T04:04:35.487Z,100778.47
2018-04-15T04:07:03.623Z,100762.34
2018-04-15T04:09:31.177Z,100766.66
2018-04-15T04:11:59.296Z,100768.08
2018-04-15T04:14:27.735Z,100751.55
2018-04-15T04:16:55.259Z,100752.98
2018-04-15T04:19:34.690Z,100749.73
2018-04-15T04:22:15.231Z,100741.88
2018-04-15T04:24:55.390Z,100739.82
2018-04-15T04:27:22.966Z,100737.12
2018-04-15T04:29:50.499Z,100745.02
2018-04-15T04:32:18.026Z,100748.30
2018-04-15T04:34:45.586Z,100747.39
2018-04-15T04:37:13.140Z,100745.61
2018-04-15T04:39:41.534Z,100744.98
2018-04-15T04:42:09.959Z,100749.83
2018-04-15T04:44:38.434Z,100751.23
2018-04-15T04:47:05.961Z,100743.77
2018-04-15T04:49:34.230Z,100751.66
2018-04-15T04:52:01.778Z,100755.25
2018-04-15T04:54:29.320Z,100759.96
2018-04-15T04:56:56.875Z,100759.78
2018-04-15T04:59:24.406Z,100750.48
2018-04-15T05:01:52.503Z,100751.06
2018-04-15T05:04:20.050Z,100749.95
2018-04-15T05:06:48.134Z,100751.91
2018-04-15T05:09:15.670Z,100752.34
2018-04-15T05:11:44.310Z,100754.44
2018-04-15T05:14:12.493Z,100754.07
2018-04-15T05:16:40.035Z,100756.92
2018-04-15T05:19:07.736Z,100754.58
2018-04-15T05:21:35.770Z,100751.72
2018-04-15T05:24:03.298Z,100749.73
2018-04-15T05:26:31.752Z,100753.60
2018-04-15T05:28:59.304Z,100767.30
2018-04-15T05:31:26.837Z,100768.30
2018-04-15T05:33:54.404Z,100770.88
2018-04-15T05:36:21.954Z,100770.98
2018-04-15T05:38:50.276Z,100765.94
2018-04-15T05:41:17.806Z,100771.91
2018-04-15T05:43:46.062Z,100768.91
2018-04-15T05:46:14.237Z,100767.34
2018-04-15T05:48:43.160Z,100774.88
2018-04-15T05:51:10.698Z,100765.56
2018-04-15T05:53:38.612Z,100770.66
2018-04-15T05:56:06.187Z,100781.42
2018-04-15T05:58:33.727Z,100763.88
2018-04-15T06:01:02.042Z,100770.13
2018-04-15T06:03:29.581Z,100765.45
2018-04-15T06:05:57.875Z,100768.73
2018-04-15T06:08:25.475Z,100766.98
2018-04-15T06:10:54.218Z,100767.22
2018-04-15T06:13:22.589Z,100774.48
2018-04-15T06:15:50.647Z,100776.73
2018-04-15T06:18:18.180Z,100771.29
2018-04-15T06:20:45.703Z,100769.00
2018-04-15T06:23:14.113Z,100780.92
2018-04-15T06:25:41.652Z,100784.93
2018-04-15T06:28:09.243Z,100779.91
2018-04-15T06:30:37.706Z,100785.58
2018-04-15T06:33:05.350Z,100785.23
2018-04-15T06:35:32.882Z,100785.23
2018-04-15T06:38:00.833Z,100785.84
2018-04-15T06:40:28.360Z,100778.20
2018-04-15T06:42:55.901Z,100776.83
2018-04-15T06:45:24.015Z,100782.11
2018-04-15T06:47:52.209Z,100785.29
2018-04-15T06:50:19.755Z,100779.05
2018-04-15T06:52:47.307Z,100777.42
2018-04-15T06:55:14.868Z,100776.83
2018-04-15T06:57:42.401Z,100784.50
2018-04-15T07:00:10.614Z,100786.50
2018-04-15T07:02:38.402Z,100783.73
2018-04-15T07:05:05.934Z,100792.44
2018-04-15T07:07:34.190Z,100786.87
2018-04-15T07:10:01.731Z,100786.63
2018-04-15T07:12:29.855Z,100789.95
2018-04-15T07:14:57.905Z,100788.56
2018-04-15T07:17:25.439Z,100795.92
2018-04-15T07:19:52.968Z,100789.16
2018-04-15T07:22:21.374Z,100787.28
2018-04-15T07:24:48.918Z,100784.37
2018-04-15T07:27:16.451Z,100788.00
2018-04-15T07:29:44.014Z,100783.22
2018-04-15T07:32:11.546Z,100788.16
2018-04-15T07:34:39.175Z,100789.34
2018-04-15T07:37:06.842Z,100794.31
2018-04-15T07:39:35.592Z,100799.26
2018-04-15T07:42:03.159Z,100805.31
2018-04-15T07:44:31.215Z,100812.09
2018-04-15T07:46:58.755Z,100808.08
2018-04-15T07:49:26.846Z,100805.05
2018-04-15T07:51:54.415Z,100809.03
2018-04-15T07:54:21.951Z,100806.80
2018-04-15T07:56:49.508Z,100800.02
2018-04-15T07:59:17.064Z,100804.83
2018-04-15T08:01:45.835Z,100795.02
2018-04-15T08:04:13.386Z,100792.75
2018-04-15T08:06:41.606Z,100789.03
2018-04-15T08:09:09.176Z,100789.48
2018-04-15T08:11:37.660Z,100793.62
2018-04-15T08:14:05.896Z,100786.92
2018-04-15T08:16:33.435Z,100791.34
2018-04-15T08:19:00.978Z,100785.27
2018-04-15T08:21:29.417Z,100781.72
2018-04-15T08:23:57.210Z,100781.97
2018-04-15T08:26:24.748Z,100779.57
2018-04-15T08:28:52.307Z,100786.64
2018-04-15T08:31:20.685Z,100791.25
2018-04-15T08:33:48.221Z,100794.95
2018-04-15T08:36:15.763Z,100788.38
2018-04-15T08:38:43.907Z,100786.18
2018-04-15T08:41:11.436Z,100788.26
2018-04-15T08:43:39.916Z,100793.10
2018-04-15T08:46:08.497Z,100782.23
2018-04-15T08:48:36.637Z,100789.59
2018-04-15T08:51:04.234Z,100785.87
2018-04-15T08:53:31.776Z,100786.61
2018-04-15T08:55:59.952Z,100784.22
2018-04-15T08:58:27.496Z,100784.32
2018-04-15T09:00:55.720Z,100789.59
2018-04-15T09:03:23.980Z,100775.86
2018-04-15T09:05:52.126Z,100784.41
2018-04-15T09:08:19.731Z,100784.42
2018-04-15T09:10:47.915Z,100783.63
2018-04-15T09:13:15.801Z,100786.73
2018-04-15T09:15:44.133Z,100780.81
2018-04-15T09:18:11.681Z,100781.83
2018-04-15T09:20:39.247Z,100784.08
2018-04-15T09:23:07.733Z,100781.38
2018-04-15T09:25:35.285Z,100773.42
2018-04-15T09:28:02.847Z,100769.55
2018-04-15T09:30:30.462Z,100774.24
2018-04-15T09:32:58.063Z,100760.45
2018-04-15T09:35:25.622Z,100768.69
2018-04-15T09:37:53.756Z,100771.02
2018-04-15T09:40:21.316Z,100766.63
2018-04-15T09:42:48.858Z,100774.22
2018-04-15T09:45:17.147Z,100768.52
2018-04-15T09:47:45.127Z,100783.41
2018-04-15T09:50:12.670Z,100775.11
2018-04-15T09:52:40.237Z,100776.36
2018-04-15T09:55:08.249Z,100772.98
2018-04-15T09:57:35.794Z,100768.63
2018-04-15T10:00:04.237Z,100771.06
2018-04-15T10:02:31.823Z,100769.19
2018-04-15T10:04:59.362Z,100764.23
2018-04-15T10:07:27.923Z,100756.38
2018-04-15T10:09:56.118Z,100759.47
2018-04-15T10:12:25.501Z,100766.95
2018-04-15T10:14:54.390Z,100774.44
2018-04-15T10:17:21.944Z,100766.73
2018-04-15T10:19:49.473Z,100767.27
2018-04-15T10:22:17.749Z,100766.56
2018-04-15T10:24:45.284Z,100765.53
2018-04-15T10:27:12.843Z,100765.69
2018-04-15T10:29:40.414Z,100765.34
2018-04-15T10:32:08.248Z,100766.66
2018-04-15T10:34:35.890Z,100762.97
2018-04-15T10:37:03.486Z,100756.49
2018-04-15T10:39:31.999Z,100755.67
2018-04-15T10:42:00.147Z,100760.52
2018-04-15T10:44:28.252Z,100755.52
2018-04-15T10:46:55.791Z,100752.73
2018-04-15T10:49:23.741Z,100747.31
2018-04-15T10:51:51.278Z,100760.02
2018-04-15T10:54:18.812Z,100755.67
2018-04-15T10:56:46.386Z,100752.25
2018-04-15T10:59:14.502Z,100742.37
2018-04-15T11:01:42.601Z,100737.09
2018-04-15T11:04:10.151Z,100742.03
2018-04-15T11:06:38.505Z,100733.46
2018-04-15T11:09:07.257Z,100748.05
2018-04-15T11:11:35.394Z,100741.07
2018-04-15T11:14:03.702Z,100741.16
2018-04-15T11:16:31.211Z,100752.85
2018-04-15T11:18:58.768Z,100752.69
2018-04-15T11:21:28.410Z,100754.20
2018-04-15T11:23:55.945Z,100744.01
2018-04-15T11:26:23.484Z,100749.09
2018-04-15T11:28:51.118Z,100741.56
2018-04-15T11:31:18.647Z,100749.87
2018-04-15T11:33:46.200Z,100738.70
2018-04-15T11:36:13.786Z,100743.50
2018-04-15T11:38:42.791Z,100739.02
2018-04-15T11:41:10.333Z,100737.41
2018-04-15T11:43:39.150Z,100731.34
2018-04-15T11:46:07.587Z,100733.15
2018-04-15T11:48:35.787Z,100739.44
2018-04-15T11:51:03.319Z,100739.13
2018-04-15T11:53:30.883Z,100734.27
2018-04-15T11:55:59.139Z,100731.03
2018-04-15T11:58:26.692Z,100732.59
2018-04-15T12:00:54.920Z,100731.92
2018-04-15T12:03:22.594Z,100731.83
2018-04-15T12:05:50.812Z,100727.36
2018-04-15T12:08:18.361Z,100725.00
2018-04-15T12:10:46.758Z,100724.92
2018-04-15T12:13:14.825Z,100720.02
2018-04-15T12:15:43.235Z,100728.59
2018-04-15T12:18:11.007Z,100724.64
2018-04-15T12:20:38.665Z,100736.09
2018-04-15T12:23:07.050Z,100733.20
2018-04-15T12:25:34.624Z,100731.05
2018-04-15T12:28:02.823Z,100732.72
2018-04-15T12:30:30.370Z,100730.81
2018-04-15T12:32:57.899Z,100733.14
2018-04-15T12:35:25.460Z,100732.95
2018-04-15T12:37:52.995Z,100728.83
2018-04-15T12:40:20.530Z,100734.64
2018-04-15T12:42:48.101Z,100735.23
2018-04-15T12:45:16.524Z,100726.70
2018-04-15T12:47:45.171Z,100724.52
2018-04-15T12:50:12.715Z,100720.17
2018-04-15T12:52:40.924Z,100725.19
2018-04-15T12:55:09.529Z,100725.54
2018-04-15T12:57:37.468Z,100730.36
2018-04-15T13:00:05.651Z,100730.09
2018-04-15T13:02:33.215Z,100720.83
2018-04-15T13:05:00.770Z,100721.43
2018-04-15T13:07:28.753Z,100730.84
2018-04-15T13:09:56.343Z,100732.42
2018-04-15T13:12:24.784Z,100728.44
2018-04-15T13:14:52.937Z,100725.45
2018-04-15T13:17:20.501Z,100723.85
2018-04-15T13:19:48.081Z,100718.02
2018-04-15T13:22:16.059Z,100715.67
2018-04-15T13:24:43.583Z,100723.78
2018-04-15T13:27:11.142Z,100722.69
2018-04-15T13:29:39.092Z,100716.82
2018-04-15T13:32:06.734Z,100712.80
2018-04-15T13:34:34.337Z,100710.66
2018-04-15T13:37:01.975Z,100703.03
2018-04-15T13:39:30.360Z,100700.09
2018-04-15T13:41:57.911Z,100698.14
2018-04-15T13:44:26.165Z,100694.75
2018-04-15T13:46:53.749Z,100695.96
2018-04-15T13:49:21.968Z,100696.34
2018-04-15T13:51:50.084Z,100699.76
2018-04-15T13:54:17.703Z,100696.45
2018-04-15T13:56:45.289Z,100696.56
2018-04-15T13:59:12.956Z,100692.61
2018-04-15T14:01:41.028Z,100690.90
2018-04-15T14:04:08.688Z,100687.16
2018-04-15T14:06:37.341Z,100683.84
2018-04-15T14:09:04.971Z,100683.02
2018-04-15T14:11:33.202Z,100681.48
2018-04-15T14:14:01.298Z,100677.66
2018-04-15T14:16:28.903Z,100672.80
2018-04-15T14:18:56.482Z,100681.80
2018-04-15T14:21:24.676Z,100685.64
2018-04-15T14:23:52.227Z,100686.16
2018-04-15T14:26:19.827Z,100684.70
2018-04-15T14:28:47.428Z,100681.95
2018-04-15T14:31:15.039Z,100683.09
2018-04-15T14:33:42.620Z,100682.84
2018-04-15T14:36:10.232Z,100675.08
2018-04-15T14:38:38.154Z,100673.73
2018-04-15T14:41:05.698Z,100676.94
2018-04-15T14:43:33.974Z,100674.41
2018-04-15T14:46:02.134Z,100670.86
2018-04-15T14:48:30.554Z,100667.67
2018-04-15T14:50:58.150Z,100669.62
2018-04-15T14:53:25.706Z,100670.66
2018-04-15T14:55:53.583Z,100673.18
2018-04-15T14:58:21.137Z,100672.61
2018-04-15T15:00:49.343Z,100673.63
2018-04-15T15:03:16.905Z,100666.50
2018-04-15T15:05:44.904Z,100663.20
2018-04-15T15:08:12.473Z,100662.28
2018-04-15T15:10:40.465Z,100665.81
2018-04-15T15:13:09.068Z,100660.47
2018-04-15T15:15:37.906Z,100656.14
2018-04-15T15:18:05.473Z,100660.59
2018-04-15T15:20:33.034Z,100652.02
2018-04-15T15:23:02.048Z,100656.15
2018-04-15T15:25:29.634Z,100655.22
2018-04-15T15:27:57.239Z,100651.70
2018-04-15T15:30:24.844Z,100644.66
2018-04-15T15:32:52.421Z,100648.80
2018-04-15T15:35:20.000Z,100646.53
2018-04-15T15:37:47.584Z,100642.81
2018-04-15T15:40:15.208Z,100648.60
2018-04-15T15:45:25.692Z,100645.45
2018-04-15T15:47:54.135Z,100642.77
2018-04-15T15:50:21.678Z,100646.55
2018-04-15T15:52:49.248Z,100643.39
2018-04-15T15:55:16.814Z,100646.56
2018-04-15T15:57:44.931Z,100651.05
2018-04-15T16:00:13.184Z,100645.47
2018-04-15T16:02:40.721Z,100640.83
2018-04-15T16:05:09.030Z,100643.61
2018-04-15T16:07:37.441Z,100648.05
2018-04-15T16:10:05.051Z,100645.16
2018-04-15T16:12:33.253Z,100636.58
2018-04-15T16:15:01.433Z,100642.16
2018-04-15T16:17:29.074Z,100637.62
2018-04-15T16:19:56.647Z,100640.27
2018-04-15T16:22:24.654Z,100634.79
2018-04-15T16:24:52.206Z,100638.82
2018-04-15T16:27:19.749Z,100632.66
2018-04-15T16:29:47.308Z,100633.17
2018-04-15T16:32:14.868Z,100636.27
2018-04-15T16:34:42.405Z,100632.94
2018-04-15T16:37:09.982Z,100628.84
2018-04-15T16:39:37.863Z,100629.25
2018-04-15T16:42:05.411Z,100632.14
2018-04-15T16:44:34.046Z,100629.45
2018-04-15T16:47:01.599Z,100631.01
2018-04-15T16:49:30.010Z,100633.38
2018-04-15T16:51:57.560Z,100629.05
2018-04-15T16:54:25.154Z,100631.02
2018-04-15T16:56:52.743Z,100632.36
2018-04-15T16:59:20.284Z,100628.26
2018-04-15T17:01:48.371Z,100632.28
2018-04-15T17:04:15.918Z,100628.05
2018-04-15T17:06:44.244Z,100634.14
2018-04-15T17:09:11.779Z,100631.77
2018-04-15T17:11:40.399Z,100638.66
2018-04-15T17:14:08.964Z,100636.39
2018-04-15T17:16:36.910Z,100642.58
2018-04-15T17:19:05.240Z,100642.38
2018-04-15T17:21:33.351Z,100638.69
2018-04-15T17:24:00.885Z,100639.52
2018-04-15T17:26:28.447Z,100636.56
2018-04-15T17:28:56.022Z,100630.05
2018-04-15T17:31:23.574Z,100633.69
2018-04-15T17:33:51.200Z,100630.48
2018-04-15T17:36:18.808Z,100631.45
2018-04-15T17:38:46.350Z,100624.11
2018-04-15T17:41:14.721Z,100629.06
2018-04-15T17:43:42.941Z,100628.23
2018-04-15T17:46:11.511Z,100629.50
2018-04-15T17:48:39.866Z,100634.75
2018-04-15T17:51:07.830Z,100633.20
2018-04-15T17:53:35.388Z,100638.38
2018-04-15T17:56:02.967Z,100640.75
2018-04-15T17:58:30.530Z,100644.14
2018-04-15T18:00:58.683Z,100648.16
2018-04-15T18:03:26.236Z,100644.57
2018-04-15T18:05:54.429Z,100653.75
2018-04-15T18:08:21.976Z,100649.52
2018-04-15T18:10:50.094Z,100653.64
2018-04-15T18:13:18.216Z,100643.95
2018-04-15T18:15:46.459Z,100642.91
2018-04-15T18:18:14.026Z,100647.24
2018-04-15T18:20:41.605Z,100647.86
2018-04-15T18:23:09.809Z,100651.05
2018-04-15T18:25:38.208Z,100657.45
2018-04-15T18:28:05.817Z,100663.73
2018-04-15T18:30:33.396Z,100662.81
2018-04-15T18:33:00.991Z,100660.03
2018-04-15T18:35:28.546Z,100662.09
2018-04-15T18:37:56.084Z,100665.60
2018-04-15T18:40:24.293Z,100662.10
2018-04-15T18:42:51.840Z,100662.00
2018-04-15T18:45:20.116Z,100654.78
2018-04-15T18:47:48.374Z,100660.94
2018-04-15T18:50:15.972Z,100659.09
2018-04-15T18:52:43.491Z,100662.52
2018-04-15T18:55:11.059Z,100663.77
2018-04-15T18:57:39.130Z,100655.81
2018-04-15T19:00:07.866Z,100661.36
2018-04-15T19:02:35.431Z,100660.84
2018-04-15T19:05:02.963Z,100664.86
2018-04-15T19:07:30.948Z,100663.13
2018-04-15T19:09:58.484Z,100668.08
2018-04-15T19:12:27.131Z,100671.59
2018-04-15T19:14:55.287Z,100671.37
2018-04-15T19:17:22.824Z,100672.71
2018-04-15T19:19:50.383Z,100665.28
2018-04-15T19:22:18.704Z,100655.48
2018-04-15T19:24:46.303Z,100666.83
2018-04-15T19:27:14.532Z,100668.28
2018-04-15T19:29:42.086Z,100662.70
2018-04-15T19:32:10.052Z,100664.67
2018-04-15T19:34:37.719Z,100670.04
2018-04-15T19:37:06.023Z,100666.43
2018-04-15T19:39:33.574Z,100672.72
2018-04-15T19:42:01.128Z,100661.68
2018-04-15T19:44:29.364Z,100659.72
2018-04-15T19:46:56.919Z,100666.74
2018-04-15T19:49:25.248Z,100665.20
2018-04-15T19:51:52.818Z,100666.23
2018-04-15T19:54:20.386Z,100668.81
2018-04-15T19:56:47.971Z,100666.33
2018-04-15T19:59:15.531Z,100674.17
2018-04-15T20:01:43.716Z,100673.86
2018-04-15T20:04:11.255Z,100671.59
2018-04-15T20:06:40.068Z,100670.66
2018-04-15T20:09:07.818Z,100671.07
2018-04-15T20:11:35.998Z,100668.38
2018-04-15T20:14:04.183Z,100671.48
2018-04-15T20:16:31.751Z,100667.45
2018-04-15T20:18:59.308Z,100663.53
2018-04-15T20:21:27.518Z,100667.37
2018-04-15T20:23:55.070Z,100668.80
2018-04-15T20:26:22.611Z,100667.45
2018-04-15T20:28:50.210Z,100661.98
2018-04-15T20:31:17.739Z,100667.34
2018-04-15T20:33:46.041Z,100668.17
2018-04-15T20:36:14.470Z,100668.16
2018-04-15T20:38:42.122Z,100661.88
2018-04-15T20:41:09.673Z,100670.33
2018-04-15T20:43:38.330Z,100663.02
2018-04-15T20:46:07.098Z,100661.05
2018-04-15T20:48:35.423Z,100656.20
2018-04-15T20:51:02.985Z,100657.03
2018-04-15T20:53:30.519Z,100647.84
2018-04-15T20:55:58.125Z,100651.24
2018-04-15T20:58:25.660Z,100650.83
2018-04-15T21:00:53.939Z,100648.05
2018-04-15T21:03:21.503Z,100649.48
2018-04-15T21:05:50.321Z,100646.08
2018-04-15T21:08:17.855Z,100645.80
2018-04-15T21:10:46.028Z,100647.86
2018-04-15T21:13:14.363Z,100648.06
2018-04-15T21:15:42.510Z,100649.91
2018-04-15T21:18:10.061Z,100646.20
2018-04-15T21:20:38.286Z,100637.75
2018-04-15T21:23:07.153Z,100643.11
2018-04-15T21:25:34.698Z,100638.16
2018-04-15T21:28:02.257Z,100640.94
2018-04-15T21:30:29.835Z,100635.58
2018-04-15T21:32:58.367Z,100639.91
2018-04-15T21:35:25.926Z,100636.08
2018-04-15T21:37:53.495Z,100643.71
2018-04-15T21:40:21.558Z,100639.16
2018-04-15T21:42:49.118Z,100637.31
2018-04-15T21:45:17.520Z,100636.48
2018-04-15T21:47:45.924Z,100633.28
2018-04-15T21:50:13.515Z,100633.39
2018-04-15T21:52:41.069Z,100631.63
2018-04-15T21:55:08.997Z,100636.48
2018-04-15T21:57:36.572Z,100634.22
2018-04-15T22:00:04.171Z,100637.00
2018-04-15T22:02:31.741Z,100641.53
2018-04-15T22:04:59.310Z,100637.52
2018-04-15T22:07:27.401Z,100639.38
2018-04-15T22:09:54.954Z,100638.76
2018-04-15T22:12:23.233Z,100641.02
2018-04-15T22:14:51.477Z,100634.52
2018-04-15T22:17:19.028Z,100633.23
2018-04-15T22:19:46.607Z,100634.78
2018-04-15T22:22:14.711Z,100638.07
2018-04-15T22:24:42.306Z,100626.34
2018-04-15T22:27:09.906Z,100625.30
2018-04-15T22:29:39.291Z,100621.38
2018-04-15T22:32:07.530Z,100622.50
2018-04-15T22:34:35.047Z,100620.22
2018-04-15T22:37:03.016Z,100613.51
2018-04-15T22:39:31.286Z,100614.14
2018-04-15T22:41:58.815Z,100619.36
2018-04-15T22:44:27.114Z,100610.28
2018-04-15T22:46:54.651Z,100607.08
2018-04-15T22:49:23.630Z,100609.72
2018-04-15T22:51:51.173Z,100610.44
2018-04-15T22:54:18.711Z,100613.61
2018-04-15T22:56:47.058Z,100614.92
2018-04-15T22:59:14.624Z,100617.88
2018-04-15T23:01:42.204Z,100626.13
2018-04-15T23:04:10.024Z,100620.85
2018-04-15T23:06:39.170Z,100620.80
2018-04-15T23:09:06.833Z,100622.47
2018-04-15T23:11:34.914Z,100622.55
2018-04-15T23:14:03.492Z,100624.78
2018-04-15T23:16:31.065Z,100627.05
2018-04-15T23:18:58.623Z,100625.00
2018-04-15T23:21:27.159Z,100625.62
2018-04-15T23:23:54.751Z,100623.16
2018-04-15T23:26:23.010Z,100617.50
2018-04-15T23:28:50.530Z,100621.33
2018-04-15T23:31:18.068Z,100623.91
2018-04-15T23:33:45.626Z,100623.91
2018-04-15T23:36:13.187Z,100616.70
2018-04-15T23:38:41.299Z,100620.41
2018-04-15T23:41:09.007Z,100626.39
2018-04-15T23:43:38.148Z,100631.11
2018-04-15T23:46:06.574Z,100623.47
2018-04-15T23:48:34.821Z,100624.17
2018-04-15T23:51:02.366Z,100627.36
2018-04-15T23:53:29.902Z,100623.34
2018-04-15T23:55:57.458Z,100624.39
2018-04-15T23:58:25.014Z,100612.98
